Time;durP1;ratioP1;P1;durP2;ratioP2;P2;SDS_P1;SDS_P2;PMS_P1;PMS_P2;Temp;Humidity;BMP_temperature;BMP_pressure;BME280_temperature;BME280_humidity;BME280_pressure;Samples;Min_cycle;Max_cycle;Signal;HPM_P1;HPM_P2
2022/05/08 00:02:19;;;;;;;48.30;30.43;;;;;;;;;;5075090;28;20830;-69
2022/05/08 00:04:50;;;;;;;48.00;31.57;;;;;;;;;;5074740;28;20945;-69
2022/05/08 00:07:18;;;;;;;44.63;31.33;;;;;;;;;;5074843;28;20555;-70
2022/05/08 00:09:45;;;;;;;42.50;30.63;;;;;;;;;;5074883;28;20524;-69
2022/05/08 00:12:13;;;;;;;53.30;36.70;;;;;;;;;;5074599;28;20503;-69
2022/05/08 00:14:40;;;;;;;42.23;31.17;;;;;;;;;;5074885;28;20444;-69
2022/05/08 00:17:11;;;;;;;43.20;30.87;;;;;;;;;;5074838;28;20455;-69
2022/05/08 00:19:39;;;;;;;45.67;30.50;;;;;;;;;;5074799;28;20482;-69
2022/05/08 00:22:06;;;;;;;44.63;30.53;;;;;;;;;;5074245;28;20816;-70
2022/05/08 00:24:35;;;;;;;44.47;31.53;;;;;;;;;;5074372;28;20493;-70
2022/05/08 00:27:02;;;;;;;46.50;30.50;;;;;;;;;;5074469;28;20452;-69
2022/05/08 00:29:29;;;;;;;47.97;32.33;;;;;;;;;;5074817;28;20546;-69
2022/05/08 00:31:56;;;;;;;43.77;29.43;;;;;;;;;;5074292;28;20479;-69
2022/05/08 00:34:23;;;;;;;47.13;32.73;;;;;;;;;;5074152;28;20475;-69
2022/05/08 00:36:50;;;;;;;45.60;31.27;;;;;;;;;;5074317;28;20448;-69
2022/05/08 00:39:18;;;;;;;48.90;31.50;;;;;;;;;;5074290;28;20553;-69
2022/05/08 00:41:47;;;;;;;48.73;33.60;;;;;;;;;;5074368;28;20498;-69
2022/05/08 00:44:14;;;;;;;44.40;30.10;;;;;;;;;;5073358;28;20459;-69
2022/05/08 00:46:42;;;;;;;48.00;33.57;;;;;;;;;;5074063;28;20456;-69
2022/05/08 00:49:09;;;;;;;50.63;33.07;;;;;;;;;;5073943;28;20520;-70
2022/05/08 00:51:36;;;;;;;46.47;32.30;;;;;;;;;;5073974;28;20483;-69
2022/05/08 00:54:04;;;;;;;48.90;33.47;;;;;;;;;;5073943;28;20501;-69
2022/05/08 00:56:32;;;;;;;42.60;32.03;;;;;;;;;;5074089;28;20456;-69
2022/05/08 00:59:01;;;;;;;56.83;33.50;;;;;;;;;;5073799;28;21003;-69
2022/05/08 01:01:28;;;;;;;39.60;29.53;;;;;;;;;;5074100;28;20475;-69
2022/05/08 01:03:55;;;;;;;43.07;31.67;;;;;;;;;;5073580;28;20456;-69
2022/05/08 01:06:22;;;;;;;45.37;31.80;;;;;;;;;;5073864;28;20455;-69
2022/05/08 01:08:50;;;;;;;43.07;30.30;;;;;;;;;;5073812;28;20459;-69
2022/05/08 01:11:18;;;;;;;37.60;27.47;;;;;;;;;;5073595;28;20928;-69
2022/05/08 01:13:46;;;;;;;43.63;29.63;;;;;;;;;;5073308;28;20464;-69
2022/05/08 01:16:15;;;;;;;49.00;31.17;;;;;;;;;;5073656;28;20797;-69
2022/05/08 01:18:42;;;;;;;41.77;29.43;;;;;;;;;;5073427;28;20963;-69
2022/05/08 01:21:10;;;;;;;42.13;29.40;;;;;;;;;;5073563;28;20448;-69
2022/05/08 01:23:38;;;;;;;45.93;32.87;;;;;;;;;;5072875;28;20503;-69
2022/05/08 01:26:06;;;;;;;48.07;31.07;;;;;;;;;;5073453;28;20451;-69
2022/05/08 01:28:33;;;;;;;47.73;31.30;;;;;;;;;;5073306;28;20447;-69
2022/05/08 01:31:00;;;;;;;43.07;30.67;;;;;;;;;;5073280;28;20989;-69
2022/05/08 01:33:27;;;;;;;44.10;30.30;;;;;;;;;;5073283;28;20796;-70
2022/05/08 01:35:56;;;;;;;38.00;27.90;;;;;;;;;;5073691;28;20825;-69
2022/05/08 01:38:23;;;;;;;41.87;30.63;;;;;;;;;;5073228;28;20456;-69
2022/05/08 01:40:52;;;;;;;41.13;29.60;;;;;;;;;;5073002;28;20464;-69
2022/05/08 01:43:19;;;;;;;47.03;31.10;;;;;;;;;;5073181;28;20825;-69
2022/05/08 01:45:47;;;;;;;45.30;31.77;;;;;;;;;;5073151;28;20469;-69
2022/05/08 01:48:22;;;;;;;47.43;33.60;;;;;;;;;;5073001;28;20551;-69
2022/05/08 01:50:50;;;;;;;45.80;31.60;;;;;;;;;;5073039;28;20514;-69
2022/05/08 01:53:18;;;;;;;42.73;31.70;;;;;;;;;;5073038;28;20447;-69
2022/05/08 01:55:45;;;;;;;45.57;31.03;;;;;;;;;;5072116;28;20465;-69
2022/05/08 01:58:14;;;;;;;43.70;31.50;;;;;;;;;;5072943;28;20504;-69
2022/05/08 02:00:41;;;;;;;52.00;32.63;;;;;;;;;;5073491;28;20515;-69
2022/05/08 02:03:08;;;;;;;42.80;29.00;;;;;;;;;;5073073;28;20459;-69
2022/05/08 02:05:35;;;;;;;45.20;30.60;;;;;;;;;;5072743;28;20467;-69
2022/05/08 02:08:03;;;;;;;45.60;31.93;;;;;;;;;;5073026;28;20451;-69
2022/05/08 02:10:30;;;;;;;42.77;32.10;;;;;;;;;;5072839;28;20472;-69
2022/05/08 02:12:57;;;;;;;48.80;33.50;;;;;;;;;;5073083;28;21007;-69
2022/05/08 02:15:29;;;;;;;47.30;33.50;;;;;;;;;;5072905;28;20858;-69
2022/05/08 02:17:57;;;;;;;48.37;33.47;;;;;;;;;;5072956;28;20963;-69
2022/05/08 02:20:24;;;;;;;48.13;32.40;;;;;;;;;;5072641;28;20479;-69
2022/05/08 02:22:52;;;;;;;45.77;32.07;;;;;;;;;;5072411;28;20482;-69
2022/05/08 02:25:19;;;;;;;52.47;36.33;;;;;;;;;;5072885;28;20866;-69
2022/05/08 02:27:49;;;;;;;54.57;35.77;;;;;;;;;;5073044;28;20932;-69
2022/05/08 02:30:17;;;;;;;54.40;33.80;;;;;;;;;;5072732;28;20471;-69
2022/05/08 02:32:45;;;;;;;55.47;34.13;;;;;;;;;;5072673;28;20479;-69
2022/05/08 02:35:12;;;;;;;58.57;35.60;;;;;;;;;;5072380;28;20451;-69
2022/05/08 02:37:40;;;;;;;51.87;33.67;;;;;;;;;;5072966;28;20940;-69
2022/05/08 02:40:09;;;;;;;50.70;34.07;;;;;;;;;;5072614;28;20835;-69
2022/05/08 02:42:36;;;;;;;52.40;34.90;;;;;;;;;;5072660;28;20467;-69
2022/05/08 02:45:03;;;;;;;49.90;33.40;;;;;;;;;;5072293;28;20448;-69
2022/05/08 02:47:30;;;;;;;45.50;31.73;;;;;;;;;;5072503;28;20447;-69
2022/05/08 02:49:59;;;;;;;51.40;33.17;;;;;;;;;;5072404;28;20478;-69
2022/05/08 02:52:26;;;;;;;46.40;31.20;;;;;;;;;;5072453;28;20491;-69
2022/05/08 02:54:53;;;;;;;46.87;33.83;;;;;;;;;;5072304;28;20458;-69
2022/05/08 03:00:06;;;;;;;47.03;32.90;;;;;;;;;;5072332;28;20447;-69
2022/05/08 03:02:34;;;;;;;52.23;33.97;;;;;;;;;;5072723;28;20478;-69
2022/05/08 03:05:02;;;;;;;48.93;32.23;;;;;;;;;;5072384;28;20504;-69
2022/05/08 03:07:29;;;;;;;54.67;34.57;;;;;;;;;;5075236;28;20452;-69
2022/05/08 03:09:56;;;;;;;44.53;31.40;;;;;;;;;;5076200;28;20880;-69
2022/05/08 03:12:24;;;;;;;55.83;36.30;;;;;;;;;;5076092;28;20532;-69
2022/05/08 03:14:51;;;;;;;49.23;34.30;;;;;;;;;;5075846;28;20956;-69
2022/05/08 03:17:19;;;;;;;51.70;36.50;;;;;;;;;;5075832;28;20443;-69
2022/05/08 03:19:46;;;;;;;45.23;31.63;;;;;;;;;;5075777;28;20474;-69
2022/05/08 03:22:15;;;;;;;50.80;31.83;;;;;;;;;;5075538;28;20518;-69
2022/05/08 03:24:42;;;;;;;42.60;30.03;;;;;;;;;;5075860;28;20509;-69
2022/05/08 03:27:09;;;;;;;46.27;32.67;;;;;;;;;;5075556;28;20945;-69
2022/05/08 03:29:36;;;;;;;46.33;32.83;;;;;;;;;;5075564;28;20467;-69
2022/05/08 03:32:03;;;;;;;42.10;32.87;;;;;;;;;;5075357;28;20495;-69
2022/05/08 03:34:31;;;;;;;42.37;28.77;;;;;;;;;;5075481;28;20456;-69
2022/05/08 03:36:58;;;;;;;46.37;33.57;;;;;;;;;;5075707;28;20498;-69
2022/05/08 03:39:28;;;;;;;46.87;32.20;;;;;;;;;;5075335;28;20463;-69
2022/05/08 03:41:55;;;;;;;57.23;30.13;;;;;;;;;;5075436;28;20456;-69
2022/05/08 03:44:22;;;;;;;44.63;30.60;;;;;;;;;;5075237;28;20454;-69
2022/05/08 03:46:49;;;;;;;44.30;30.27;;;;;;;;;;5075500;28;20451;-69
2022/05/08 03:49:16;;;;;;;41.87;28.67;;;;;;;;;;5075168;28;20476;-69
2022/05/08 03:51:43;;;;;;;36.77;25.27;;;;;;;;;;5075234;28;20488;-69
2022/05/08 03:54:10;;;;;;;44.50;32.10;;;;;;;;;;5075177;28;20456;-69
2022/05/08 03:56:39;;;;;;;44.43;32.37;;;;;;;;;;5075419;28;20451;-69
2022/05/08 03:59:06;;;;;;;45.60;29.87;;;;;;;;;;5075354;28;20475;-69
2022/05/08 04:01:33;;;;;;;42.90;31.60;;;;;;;;;;5075236;28;20470;-69
2022/05/08 04:04:02;;;;;;;44.03;31.47;;;;;;;;;;5074779;28;20455;-69
2022/05/08 04:06:30;;;;;;;43.50;30.60;;;;;;;;;;5074847;28;20456;-69
2022/05/08 04:08:59;;;;;;;47.87;31.07;;;;;;;;;;5074970;28;20497;-69
2022/05/08 04:11:29;;;;;;;44.07;30.40;;;;;;;;;;5074825;28;20512;-69
2022/05/08 04:13:58;;;;;;;39.70;29.90;;;;;;;;;;5074847;28;20505;-69
2022/05/08 04:16:26;;;;;;;41.30;30.27;;;;;;;;;;5074797;28;20504;-69
2022/05/08 04:18:53;;;;;;;35.53;25.50;;;;;;;;;;5073844;28;20490;-69
2022/05/08 04:21:20;;;;;;;40.47;28.70;;;;;;;;;;5074629;28;20459;-69
2022/05/08 04:26:32;;;;;;;31.03;23.63;;;;;;;;;;5074829;28;20423;-69
2022/05/08 04:29:01;;;;;;;31.90;24.20;;;;;;;;;;5074662;28;20476;-69
2022/05/08 04:31:28;;;;;;;34.87;25.73;;;;;;;;;;5074433;28;20459;-69
2022/05/08 04:33:55;;;;;;;34.10;26.73;;;;;;;;;;5074292;28;20824;-69
2022/05/08 04:36:22;;;;;;;30.87;23.90;;;;;;;;;;5074414;28;20932;-69
2022/05/08 04:38:49;;;;;;;32.83;24.50;;;;;;;;;;5074333;28;20466;-69
2022/05/08 04:41:18;;;;;;;29.37;24.10;;;;;;;;;;5074303;28;20459;-69
2022/05/08 04:43:45;;;;;;;32.93;23.73;;;;;;;;;;5073999;28;20455;-69
2022/05/08 04:46:13;;;;;;;29.20;23.03;;;;;;;;;;5073992;28;20932;-69
2022/05/08 04:48:42;;;;;;;27.17;23.13;;;;;;;;;;5074000;28;20460;-69
2022/05/08 04:51:09;;;;;;;29.00;24.27;;;;;;;;;;5074177;28;21017;-69
2022/05/08 04:53:36;;;;;;;29.20;22.90;;;;;;;;;;5074100;28;20562;-69
2022/05/08 04:56:03;;;;;;;36.80;23.27;;;;;;;;;;5074249;28;20447;-69
2022/05/08 04:58:32;;;;;;;23.63;18.70;;;;;;;;;;5073970;28;20458;-69
2022/05/08 05:00:59;;;;;;;26.03;20.80;;;;;;;;;;5074106;28;20562;-69
2022/05/08 05:03:28;;;;;;;31.93;21.53;;;;;;;;;;5074028;28;20486;-69
2022/05/08 05:05:55;;;;;;;28.07;23.23;;;;;;;;;;5073674;28;20559;-70
2022/05/08 05:08:22;;;;;;;26.97;22.23;;;;;;;;;;5073558;28;20456;-69
2022/05/08 05:10:49;;;;;;;27.00;21.30;;;;;;;;;;5073779;28;20463;-69
2022/05/08 05:13:16;;;;;;;27.60;19.93;;;;;;;;;;5073573;28;20528;-69
2022/05/08 05:15:43;;;;;;;27.83;20.93;;;;;;;;;;5089935;28;20482;-69
2022/05/08 05:18:11;;;;;;;27.27;21.53;;;;;;;;;;5093772;28;20454;-69
2022/05/08 05:20:39;;;;;;;24.30;20.03;;;;;;;;;;5093710;28;20471;-69
2022/05/08 05:23:07;;;;;;;28.80;21.13;;;;;;;;;;5093098;28;20529;-69
2022/05/08 05:25:34;;;;;;;28.00;20.40;;;;;;;;;;5093432;28;20458;-69
2022/05/08 05:28:01;;;;;;;26.30;20.80;;;;;;;;;;5093340;28;20450;-69
2022/05/08 05:30:28;;;;;;;25.90;20.00;;;;;;;;;;5093633;28;20478;-69
2022/05/08 05:32:55;;;;;;;25.10;20.50;;;;;;;;;;5093332;28;20474;-69
2022/05/08 05:35:22;;;;;;;25.87;20.80;;;;;;;;;;5093397;28;20622;-69
2022/05/08 05:37:51;;;;;;;24.27;20.07;;;;;;;;;;5093163;28;20451;-69
2022/05/08 05:40:18;;;;;;;27.80;20.60;;;;;;;;;;5093289;28;20843;-69
2022/05/08 05:42:45;;;;;;;30.53;21.43;;;;;;;;;;5093354;28;20845;-69
2022/05/08 05:45:12;;;;;;;25.40;20.13;;;;;;;;;;5093398;28;20521;-69
2022/05/08 05:47:52;;;;;;;26.70;20.27;;;;;;;;;;5093392;28;20468;-69
2022/05/08 05:50:20;;;;;;;29.83;20.97;;;;;;;;;;5093494;28;20469;-69
2022/05/08 05:52:47;;;;;;;21.63;18.33;;;;;;;;;;5093205;28;20482;-69
2022/05/08 05:55:15;;;;;;;25.90;20.03;;;;;;;;;;5093261;28;20458;-69
2022/05/08 05:57:42;;;;;;;24.73;18.10;;;;;;;;;;5093259;28;20447;-69
2022/05/08 06:00:10;;;;;;;27.63;20.50;;;;;;;;;;5093182;28;20467;-69
2022/05/08 06:02:39;;;;;;;24.97;19.40;;;;;;;;;;5093570;28;20451;-69
2022/05/08 06:05:06;;;;;;;22.03;17.60;;;;;;;;;;5093205;28;20507;-69
2022/05/08 06:07:34;;;;;;;25.17;20.30;;;;;;;;;;5093537;28;20531;-69
2022/05/08 06:10:01;;;;;;;22.93;18.23;;;;;;;;;;5093403;28;21048;-69
2022/05/08 06:12:29;;;;;;;21.30;18.07;;;;;;;;;;5093350;28;20483;-69
2022/05/08 06:14:56;;;;;;;20.93;17.50;;;;;;;;;;5093325;28;20449;-69
2022/05/08 06:17:23;;;;;;;21.67;17.37;;;;;;;;;;5093129;28;20830;-69
2022/05/08 06:19:50;;;;;;;22.50;19.77;;;;;;;;;;5093267;28;20474;-69
2022/05/08 06:22:17;;;;;;;21.13;18.63;;;;;;;;;;5092641;28;20446;-69
2022/05/08 06:24:44;;;;;;;23.90;18.40;;;;;;;;;;5092976;28;20462;-69
2022/05/08 06:27:12;;;;;;;30.20;21.57;;;;;;;;;;5092954;28;20446;-69
2022/05/08 06:29:40;;;;;;;23.00;19.30;;;;;;;;;;5093258;28;20480;-69
2022/05/08 06:32:08;;;;;;;26.13;17.97;;;;;;;;;;5092921;28;20450;-69
2022/05/08 06:34:35;;;;;;;24.90;18.67;;;;;;;;;;5093001;28;20473;-69
2022/05/08 06:37:02;;;;;;;20.00;16.47;;;;;;;;;;5092993;28;20492;-69
2022/05/08 06:39:30;;;;;;;26.93;19.17;;;;;;;;;;5092850;28;20935;-69
2022/05/08 06:41:57;;;;;;;20.50;16.87;;;;;;;;;;5094830;28;20833;-69
2022/05/08 06:44:24;;;;;;;22.77;17.17;;;;;;;;;;5096647;28;20454;-69
2022/05/08 06:46:52;;;;;;;26.10;18.20;;;;;;;;;;5096843;28;20451;-69
2022/05/08 06:49:20;;;;;;;23.00;18.63;;;;;;;;;;5096510;28;20467;-69
2022/05/08 06:51:47;;;;;;;22.23;16.70;;;;;;;;;;5096687;28;20467;-69
2022/05/08 06:54:15;;;;;;;22.30;18.50;;;;;;;;;;5096369;28;20486;-69
2022/05/08 06:56:42;;;;;;;25.50;18.40;;;;;;;;;;5096610;28;20447;-69
2022/05/08 07:01:55;;;;;;;21.17;17.60;;;;;;;;;;5096542;28;20513;-69
2022/05/08 07:04:22;;;;;;;19.97;17.30;;;;;;;;;;5096216;28;20450;-69
2022/05/08 07:06:49;;;;;;;21.43;15.40;;;;;;;;;;5096632;28;20450;-69
2022/05/08 07:09:16;;;;;;;18.30;16.30;;;;;;;;;;5086088;28;20997;-69
2022/05/08 07:11:45;;;;;;;17.00;14.87;;;;;;;;;;5094191;28;20832;-69
2022/05/08 07:14:12;;;;;;;18.90;15.97;;;;;;;;;;5094570;28;20593;-70
2022/05/08 07:16:39;;;;;;;21.10;16.87;;;;;;;;;;5090802;28;20450;-70
2022/05/08 07:19:08;;;;;;;22.23;17.90;;;;;;;;;;5094466;28;21007;-70
2022/05/08 07:21:35;;;;;;;23.87;19.47;;;;;;;;;;5094991;28;20447;-70
2022/05/08 07:24:02;;;;;;;26.10;18.53;;;;;;;;;;5093758;28;20463;-69
2022/05/08 07:26:29;;;;;;;24.77;19.50;;;;;;;;;;5094360;28;20454;-70
2022/05/08 07:28:56;;;;;;;19.60;17.50;;;;;;;;;;5094373;28;20856;-70
2022/05/08 07:31:24;;;;;;;20.27;16.60;;;;;;;;;;5094464;28;20451;-70
2022/05/08 07:36:12;;;;;;;24.97;17.83;;;;;;;;;;5094139;28;20478;-70
2022/05/08 07:36:40;;;;;;;22.40;19.60;;;;;;;;;;5094293;28;20530;-70
2022/05/08 07:39:07;;;;;;;20.70;17.20;;;;;;;;;;5093815;28;20506;-70
2022/05/08 07:41:34;;;;;;;21.60;19.00;;;;;;;;;;5094527;28;20465;-70
2022/05/08 07:44:01;;;;;;;23.57;20.03;;;;;;;;;;5094358;28;20824;-70
2022/05/08 07:46:28;;;;;;;21.47;16.60;;;;;;;;;;5093942;28;20458;-70
2022/05/08 07:48:55;;;;;;;19.83;16.90;;;;;;;;;;5093894;28;20451;-70
2022/05/08 07:51:23;;;;;;;19.80;16.80;;;;;;;;;;5094236;28;20446;-70
2022/05/08 07:53:51;;;;;;;18.97;16.90;;;;;;;;;;5092560;28;21013;-70
2022/05/08 07:56:18;;;;;;;18.27;15.63;;;;;;;;;;5094080;28;20845;-70
2022/05/08 07:58:45;;;;;;;19.43;17.20;;;;;;;;;;5094281;28;20454;-70
2022/05/08 08:01:12;;;;;;;17.93;15.30;;;;;;;;;;5093451;28;20450;-70
2022/05/08 08:03:41;;;;;;;18.00;16.07;;;;;;;;;;5093704;28;20459;-70
2022/05/08 08:06:08;;;;;;;15.77;13.80;;;;;;;;;;5093633;28;20459;-70
2022/05/08 08:08:35;;;;;;;16.97;14.20;;;;;;;;;;5094081;28;20446;-70
2022/05/08 08:11:05;;;;;;;15.83;14.23;;;;;;;;;;5093717;28;20478;-70
2022/05/08 08:13:32;;;;;;;17.17;13.17;;;;;;;;;;5094126;28;20990;-70
2022/05/08 08:15:59;;;;;;;16.10;14.33;;;;;;;;;;5093641;28;20940;-70
2022/05/08 08:18:26;;;;;;;15.60;13.97;;;;;;;;;;5093973;28;20463;-70
2022/05/08 08:20:54;;;;;;;14.87;13.27;;;;;;;;;;5093395;28;21030;-70
2022/05/08 08:23:21;;;;;;;17.43;15.57;;;;;;;;;;5092986;28;20459;-70
2022/05/08 08:25:48;;;;;;;17.40;13.37;;;;;;;;;;5093729;28;20474;-70
2022/05/08 08:28:17;;;;;;;14.87;13.20;;;;;;;;;;5093384;28;20459;-70
2022/05/08 08:30:44;;;;;;;18.07;13.47;;;;;;;;;;5093509;28;20483;-70
2022/05/08 08:33:11;;;;;;;14.80;13.17;;;;;;;;;;5093033;28;20486;-70
2022/05/08 08:35:39;;;;;;;14.73;12.87;;;;;;;;;;5093163;28;20970;-70
2022/05/08 08:38:06;;;;;;;15.33;13.03;;;;;;;;;;5093154;28;20458;-70
2022/05/08 08:40:35;;;;;;;13.17;11.80;;;;;;;;;;5093098;28;20478;-70
2022/05/08 08:43:03;;;;;;;13.37;12.03;;;;;;;;;;5093153;28;20458;-70
2022/05/08 08:48:21;;;;;;;14.80;13.20;;;;;;;;;;5093175;28;20994;-70
2022/05/08 08:50:48;;;;;;;12.80;11.50;;;;;;;;;;5093373;28;20474;-70
2022/05/08 08:53:16;;;;;;;14.27;12.87;;;;;;;;;;5092688;28;20490;-70
2022/05/08 08:55:43;;;;;;;13.93;12.10;;;;;;;;;;5092917;28;20450;-70
2022/05/08 08:58:10;;;;;;;14.13;12.70;;;;;;;;;;5092888;28;20799;-70
2022/05/08 09:00:38;;;;;;;15.10;12.90;;;;;;;;;;5092922;28;20470;-70
2022/05/08 09:03:05;;;;;;;17.93;13.33;;;;;;;;;;5092686;28;20442;-70
2022/05/08 09:05:34;;;;;;;13.40;12.00;;;;;;;;;;5092642;28;20928;-70
2022/05/08 09:08:01;;;;;;;13.10;11.77;;;;;;;;;;5092874;28;20461;-71
2022/05/08 09:10:35;;;;;;;12.40;11.10;;;;;;;;;;5092611;28;20480;-70
2022/05/08 09:13:04;;;;;;;15.57;12.60;;;;;;;;;;5092678;28;20558;-71
2022/05/08 09:15:32;;;;;;;16.90;12.70;;;;;;;;;;5092666;28;20455;-70
2022/05/08 09:18:01;;;;;;;14.00;12.60;;;;;;;;;;5092558;28;20454;-70
2022/05/08 09:20:33;;;;;;;15.07;12.73;;;;;;;;;;5091234;28;20490;-70
2022/05/08 09:23:10;;;;;;;11.53;10.37;;;;;;;;;;5091648;28;20434;-70
2022/05/08 09:25:51;;;;;;;14.63;12.37;;;;;;;;;;5092430;28;20450;-70
2022/05/08 09:28:19;;;;;;;13.07;11.03;;;;;;;;;;5092527;28;20558;-71
2022/05/08 09:30:56;;;;;;;12.80;11.37;;;;;;;;;;5092109;28;20506;-70
2022/05/08 09:33:26;;;;;;;12.00;10.70;;;;;;;;;;5091959;28;20494;-70
2022/05/08 09:35:53;;;;;;;13.27;10.27;;;;;;;;;;5092042;28;20451;-70
2022/05/08 09:38:20;;;;;;;13.97;12.30;;;;;;;;;;5091965;28;20458;-70
2022/05/08 09:41:04;;;;;;;13.10;11.70;;;;;;;;;;5092407;28;20475;-70
2022/05/08 09:43:32;;;;;;;12.77;11.43;;;;;;;;;;5092394;28;20442;-70
2022/05/08 09:46:00;;;;;;;12.97;11.77;;;;;;;;;;5092036;28;20457;-70
2022/05/08 09:48:28;;;;;;;13.33;12.00;;;;;;;;;;5092011;28;20454;-70
2022/05/08 09:50:57;;;;;;;12.70;11.30;;;;;;;;;;5092378;28;20982;-70
2022/05/08 09:53:25;;;;;;;13.20;11.80;;;;;;;;;;5092135;28;20488;-70
2022/05/08 09:55:53;;;;;;;14.17;12.67;;;;;;;;;;5091839;28;20451;-70
2022/05/08 09:58:20;;;;;;;13.57;12.17;;;;;;;;;;5092001;28;20450;-70
2022/05/08 10:00:48;;;;;;;14.33;11.90;;;;;;;;;;5091708;28;20493;-71
2022/05/08 10:03:16;;;;;;;12.00;10.70;;;;;;;;;;5091801;28;20451;-70
2022/05/08 10:05:44;;;;;;;11.53;9.93;;;;;;;;;;5091683;28;20451;-70
2022/05/08 10:08:14;;;;;;;13.70;12.23;;;;;;;;;;5092059;28;20453;-70
2022/05/08 10:13:54;;;;;;;26.00;15.70;;;;;;;;;;5091574;28;21084;-71
2022/05/08 10:16:40;;;;;;;12.10;10.40;;;;;;;;;;5092915;28;20454;-70
2022/05/08 10:19:22;;;;;;;10.80;9.70;;;;;;;;;;5095738;28;21063;-71
2022/05/08 10:22:06;;;;;;;9.80;8.90;;;;;;;;;;5082628;28;20524;-71
2022/05/08 10:24:34;;;;;;;9.07;8.27;;;;;;;;;;5095742;28;20513;-70
2022/05/08 10:27:11;;;;;;;8.17;7.47;;;;;;;;;;5096078;28;20454;-70
2022/05/08 10:29:39;;;;;;;12.40;8.70;;;;;;;;;;5095876;28;20807;-70
2022/05/08 10:32:09;;;;;;;10.50;9.43;;;;;;;;;;5095842;28;20787;-70
2022/05/08 10:34:37;;;;;;;9.60;8.70;;;;;;;;;;5095712;28;20486;-70
2022/05/08 10:37:22;;;;;;;10.73;9.63;;;;;;;;;;5095742;28;20455;-70
2022/05/08 10:39:53;;;;;;;11.37;10.27;;;;;;;;;;5095568;28;20470;-70
2022/05/08 10:42:42;;;;;;;13.17;10.07;;;;;;;;;;5095839;28;20511;-70
2022/05/08 10:45:29;;;;;;;11.07;9.60;;;;;;;;;;5095533;28;20990;-70
2022/05/08 10:47:56;;;;;;;8.70;7.90;;;;;;;;;;5094815;28;20456;-70
2022/05/08 10:50:23;;;;;;;8.87;7.40;;;;;;;;;;5095576;28;20474;-70
2022/05/08 10:52:51;;;;;;;9.90;8.97;;;;;;;;;;5095208;28;20450;-70
2022/05/08 10:55:19;;;;;;;9.20;7.77;;;;;;;;;;5094926;28;20492;-70
2022/05/08 10:57:47;;;;;;;8.57;7.77;;;;;;;;;;5095032;28;20458;-70
2022/05/08 11:00:18;;;;;;;9.37;8.40;;;;;;;;;;5095129;28;20481;-70
2022/05/08 11:02:46;;;;;;;9.83;8.93;;;;;;;;;;5095276;28;20435;-71
2022/05/08 11:05:14;;;;;;;9.53;8.63;;;;;;;;;;5094794;28;20455;-70
2022/05/08 11:07:48;;;;;;;7.93;6.97;;;;;;;;;;5094849;28;20854;-71
2022/05/08 11:10:16;;;;;;;8.40;7.60;;;;;;;;;;5095214;28;20481;-70
2022/05/08 11:13:01;;;;;;;11.10;8.83;;;;;;;;;;5094690;28;20451;-70
2022/05/08 11:15:28;;;;;;;9.40;8.50;;;;;;;;;;5094298;28;20537;-70
2022/05/08 11:18:06;;;;;;;8.77;7.87;;;;;;;;;;5094907;28;20458;-70
2022/05/08 11:20:36;;;;;;;10.50;9.17;;;;;;;;;;5094519;28;20531;-71
2022/05/08 11:23:03;;;;;;;9.87;8.87;;;;;;;;;;5094469;28;20994;-70
2022/05/08 11:25:30;;;;;;;11.33;9.70;;;;;;;;;;5094552;28;20498;-70
2022/05/08 11:27:59;;;;;;;9.27;8.30;;;;;;;;;;5094208;28;20446;-70
2022/05/08 11:30:30;;;;;;;9.63;8.67;;;;;;;;;;5094640;28;20471;-71
2022/05/08 11:36:05;;;;;;;8.57;7.67;;;;;;;;;;5094144;28;20984;-70
2022/05/08 11:38:42;;;;;;;9.60;8.30;;;;;;;;;;5094195;28;20943;-70
2022/05/08 11:41:10;;;;;;;11.90;8.90;;;;;;;;;;5094177;28;20446;-70
2022/05/08 11:43:39;;;;;;;11.17;9.17;;;;;;;;;;5094488;28;20450;-71
2022/05/08 11:46:07;;;;;;;8.20;7.10;;;;;;;;;;5094198;28;20504;-70
2022/05/08 11:48:37;;;;;;;11.27;9.70;;;;;;;;;;5094222;28;20459;-70
2022/05/08 11:51:05;;;;;;;10.63;9.00;;;;;;;;;;5094417;28;20545;-71
2022/05/08 11:53:39;;;;;;;9.70;8.70;;;;;;;;;;5093951;28;20458;-70
2022/05/08 11:56:21;;;;;;;9.33;7.70;;;;;;;;;;5077226;28;20981;-71
2022/05/08 11:58:49;;;;;;;10.00;9.10;;;;;;;;;;5073886;28;20448;-70
2022/05/08 12:01:26;;;;;;;11.27;8.87;;;;;;;;;;5073618;28;20451;-71
2022/05/08 12:03:53;;;;;;;11.30;8.20;;;;;;;;;;5073457;28;20459;-71
2022/05/08 12:06:21;;;;;;;12.77;8.07;;;;;;;;;;5073521;28;20451;-71
2022/05/08 12:08:48;;;;;;;9.80;7.50;;;;;;;;;;5073664;28;20544;-71
2022/05/08 12:11:28;;;;;;;12.30;8.10;;;;;;;;;;5073436;28;20952;-71
2022/05/08 12:14:07;;;;;;;8.70;7.90;;;;;;;;;;5073368;28;20892;-71
2022/05/08 12:16:34;;;;;;;12.50;7.83;;;;;;;;;;5073561;28;20458;-71
2022/05/08 12:19:12;;;;;;;7.90;6.90;;;;;;;;;;5073129;28;20563;-71
2022/05/08 12:21:43;;;;;;;8.07;7.37;;;;;;;;;;5073650;28;20459;-71
2022/05/08 12:24:11;;;;;;;10.23;9.23;;;;;;;;;;5072692;28;20907;-71
2022/05/08 12:26:38;;;;;;;9.00;8.10;;;;;;;;;;5073279;28;20455;-71
2022/05/08 12:29:08;;;;;;;9.17;8.27;;;;;;;;;;5072943;28;20472;-71
2022/05/08 12:31:36;;;;;;;12.03;8.10;;;;;;;;;;5073244;28;20874;-70
2022/05/08 12:34:05;;;;;;;7.63;6.93;;;;;;;;;;5073142;28;20813;-71
2022/05/08 12:36:33;;;;;;;11.70;8.83;;;;;;;;;;5074958;28;20514;-71
2022/05/08 12:39:00;;;;;;;10.77;9.77;;;;;;;;;;5092165;28;20467;-71
2022/05/08 12:41:27;;;;;;;7.90;7.10;;;;;;;;;;5093104;28;20821;-71
2022/05/08 12:43:54;;;;;;;11.33;7.70;;;;;;;;;;5093729;28;20454;-70
2022/05/08 12:46:22;;;;;;;10.37;8.17;;;;;;;;;;5093538;28;20454;-70
2022/05/08 12:48:49;;;;;;;10.30;8.80;;;;;;;;;;5094261;28;20458;-70
2022/05/08 12:51:16;;;;;;;10.17;9.17;;;;;;;;;;5094380;28;20451;-70
2022/05/08 12:53:44;;;;;;;9.57;8.63;;;;;;;;;;5094436;28;20446;-71
2022/05/08 12:56:11;;;;;;;9.63;8.30;;;;;;;;;;5094090;28;20491;-70
2022/05/08 13:01:25;;;;;;;8.33;7.63;;;;;;;;;;5094342;28;20426;-70
2022/05/08 13:03:53;;;;;;;9.37;8.47;;;;;;;;;;5093985;28;20465;-70
2022/05/08 13:06:21;;;;;;;9.17;8.23;;;;;;;;;;5094208;28;20543;-71
2022/05/08 13:08:48;;;;;;;8.83;7.93;;;;;;;;;;5094099;28;20955;-70
2022/05/08 13:11:15;;;;;;;14.00;8.27;;;;;;;;;;5093915;28;20461;-70
2022/05/08 13:13:42;;;;;;;10.60;7.97;;;;;;;;;;5094106;28;20967;-70
2022/05/08 13:16:11;;;;;;;8.27;7.47;;;;;;;;;;5093874;28;20509;-70
2022/05/08 13:18:40;;;;;;;10.30;7.83;;;;;;;;;;5093335;28;20461;-71
2022/05/08 13:21:07;;;;;;;13.73;7.93;;;;;;;;;;5093814;28;20447;-70
2022/05/08 13:23:34;;;;;;;9.90;7.47;;;;;;;;;;5093281;28;20455;-71
2022/05/08 13:26:02;;;;;;;6.77;6.07;;;;;;;;;;5093547;28;20817;-70
2022/05/08 13:28:31;;;;;;;14.30;10.93;;;;;;;;;;5093621;28;20545;-70
2022/05/08 13:30:59;;;;;;;9.47;8.47;;;;;;;;;;5093561;28;20474;-70
2022/05/08 13:33:26;;;;;;;13.30;7.23;;;;;;;;;;5093508;28;20454;-70
2022/05/08 13:35:54;;;;;;;8.40;7.60;;;;;;;;;;5093301;28;20498;-70
2022/05/08 13:38:23;;;;;;;9.37;7.57;;;;;;;;;;5093466;28;20439;-70
2022/05/08 13:40:50;;;;;;;8.60;7.70;;;;;;;;;;5093425;28;20478;-70
2022/05/08 13:43:17;;;;;;;9.00;8.20;;;;;;;;;;5093572;28;20473;-70
2022/05/08 13:45:44;;;;;;;9.43;8.43;;;;;;;;;;5093051;28;20525;-70
2022/05/08 13:48:12;;;;;;;5.73;5.23;;;;;;;;;;5093179;28;20549;-70
2022/05/08 13:50:39;;;;;;;7.93;6.80;;;;;;;;;;5093128;28;20466;-70
2022/05/08 13:53:08;;;;;;;8.00;7.10;;;;;;;;;;5093274;28;20458;-70
2022/05/08 13:55:37;;;;;;;8.30;7.47;;;;;;;;;;5092888;28;20485;-70
2022/05/08 13:58:04;;;;;;;8.03;6.90;;;;;;;;;;5093127;28;20447;-70
2022/05/08 14:00:31;;;;;;;7.03;6.43;;;;;;;;;;5093806;28;20481;-70
2022/05/08 14:02:59;;;;;;;8.60;6.73;;;;;;;;;;5092971;28;20457;-70
2022/05/08 14:05:26;;;;;;;8.90;8.03;;;;;;;;;;5092983;28;20447;-70
2022/05/08 14:07:53;;;;;;;12.93;8.10;;;;;;;;;;5093146;28;20450;-70
2022/05/08 14:10:22;;;;;;;10.93;8.33;;;;;;;;;;5093011;28;20482;-70
2022/05/08 14:12:49;;;;;;;9.80;6.60;;;;;;;;;;5091291;28;20447;-70
2022/05/08 14:15:17;;;;;;;7.40;6.60;;;;;;;;;;5071307;28;20574;-70
2022/05/08 14:17:44;;;;;;;7.90;7.20;;;;;;;;;;5070721;28;20936;-70
2022/05/08 14:20:12;;;;;;;7.40;6.70;;;;;;;;;;5071210;28;20471;-70
2022/05/08 14:22:41;;;;;;;6.23;5.63;;;;;;;;;;5072122;28;20474;-70
2022/05/08 14:25:08;;;;;;;7.87;7.20;;;;;;;;;;5072659;28;20494;-70
2022/05/08 14:27:37;;;;;;;7.30;6.60;;;;;;;;;;5072559;28;20447;-71
2022/05/08 14:30:06;;;;;;;8.20;7.30;;;;;;;;;;5072371;28;20841;-70
2022/05/08 14:38:02;;;;;;;7.13;6.43;;;;;;;;;;5072570;28;20542;-70
2022/05/08 14:40:29;;;;;;;8.20;7.40;;;;;;;;;;5072646;28;20486;-70
2022/05/08 14:42:58;;;;;;;8.00;7.20;;;;;;;;;;5072724;28;20459;-70
2022/05/08 14:45:25;;;;;;;7.37;6.23;;;;;;;;;;5072415;28;20448;-70
2022/05/08 14:47:52;;;;;;;7.70;6.90;;;;;;;;;;5072516;28;20447;-70
2022/05/08 14:50:19;;;;;;;6.60;6.10;;;;;;;;;;5072285;28;20464;-70
2022/05/08 14:52:46;;;;;;;8.07;7.20;;;;;;;;;;5072464;28;20452;-70
2022/05/08 14:55:14;;;;;;;8.10;7.30;;;;;;;;;;5072116;28;21033;-70
2022/05/08 14:57:41;;;;;;;8.20;7.40;;;;;;;;;;5072500;28;20452;-70